Time;durP1;ratioP1;P1;durP2;ratioP2;P2;SDS_P1;SDS_P2;PMS_P1;PMS_P2;Temp;Humidity;BMP_temperature;BMP_pressure;BME280_temperature;BME280_humidity;BME280_pressure;Samples;Min_cycle;Max_cycle;Signal;HPM_P1;HPM_P2
2024/01/23 00:00:51;;;;;;;1.30;1.20;;;;;;;9.91;61.05;101715.91;5089925;28;20036;-81
2024/01/23 00:03:17;;;;;;;2.38;2.28;;;;;;;9.85;60.82;101716.78;5088895;28;20063;-80
2024/01/23 00:05:44;;;;;;;0.17;0.17;;;;;;;9.86;61.08;101734.44;5090966;28;20024;-80
2024/01/23 00:08:10;;;;;;;0.20;0.20;;;;;;;9.87;60.92;101741.50;5100523;28;20040;-80
2024/01/23 00:10:36;;;;;;;0.20;0.20;;;;;;;9.84;60.77;101735.34;5089347;28;20035;-81
2024/01/23 00:13:03;;;;;;;0.10;0.10;;;;;;;9.95;60.81;101732.66;5089040;28;20046;-81
2024/01/23 00:15:29;;;;;;;0.20;0.20;;;;;;;9.86;60.88;101750.31;5089700;28;20465;-81
2024/01/23 00:17:55;;;;;;;0.10;0.10;;;;;;;9.78;61.12;101753.88;5092954;28;20028;-80
2024/01/23 00:20:21;;;;;;;0.55;0.55;;;;;;;9.85;60.61;101784.75;5090303;28;20041;-79
2024/01/23 00:22:47;;;;;;;0.15;0.15;;;;;;;9.90;60.86;101775.03;5087986;28;20039;-80
2024/01/23 00:25:14;;;;;;;0.10;0.10;;;;;;;9.92;60.39;101797.09;5088568;28;20029;-79
2024/01/23 00:27:40;;;;;;;0.10;0.10;;;;;;;9.96;60.24;101758.25;5094134;28;20088;-79
2024/01/23 00:30:09;;;;;;;0.10;0.10;;;;;;;9.82;60.66;101761.81;5090656;28;20035;-80
2024/01/23 00:32:35;;;;;;;3.17;2.70;;;;;;;9.88;59.92;101779.44;5088511;28;20016;-80
2024/01/23 00:35:01;;;;;;;0.10;0.10;;;;;;;9.86;59.53;101786.50;5088869;28;20036;-80
2024/01/23 00:37:28;;;;;;;0.08;0.08;;;;;;;9.67;58.71;101807.72;5090243;28;20024;-79
2024/01/23 00:39:55;;;;;;;0.10;0.10;;;;;;;9.68;57.72;101790.97;5092578;28;20033;-80
2024/01/23 00:42:21;;;;;;;0.10;0.10;;;;;;;9.85;56.84;101792.69;5086446;28;20020;-80
2024/01/23 00:44:48;;;;;;;0.13;0.13;;;;;;;9.70;56.73;101820.91;5093529;28;20032;-80
2024/01/23 00:47:15;;;;;;;0.10;0.10;;;;;;;9.81;56.19;101809.47;5092534;28;20680;-79
2024/01/23 00:49:41;;;;;;;11.98;1.48;;;;;;;9.73;56.04;101805.94;5088578;28;20017;-79
2024/01/23 00:52:07;;;;;;;1.27;1.00;;;;;;;9.77;55.86;101832.41;5087372;28;20031;-80
2024/01/23 00:54:33;;;;;;;0.13;0.13;;;;;;;9.75;55.27;101815.63;5088989;28;20035;-80
2024/01/23 00:56:59;;;;;;;0.10;0.10;;;;;;;9.82;55.42;101811.19;5088294;28;20054;-81
2024/01/23 00:59:26;;;;;;;0.20;0.20;;;;;;;9.76;55.33;101805.91;5080782;28;20135;-81
2024/01/23 01:01:52;;;;;;;0.10;0.10;;;;;;;9.73;55.49;101805.94;5089452;28;20029;-81
2024/01/23 01:04:18;;;;;;;0.10;0.10;;;;;;;9.65;55.54;101811.25;5096762;28;20043;-80
2024/01/23 01:06:45;;;;;;;0.15;0.15;;;;;;;9.77;55.83;101815.63;5093906;28;20418;-82
2024/01/23 01:09:11;;;;;;;0.10;0.10;;;;;;;9.61;56.35;101844.75;5087809;28;20035;-82
2024/01/23 01:11:37;;;;;;;0.10;0.10;;;;;;;9.76;56.05;101848.25;5087398;28;20024;-82
2024/01/23 01:14:03;;;;;;;0.57;0.57;;;;;;;9.81;56.00;101836.81;5086825;28;20035;-82
2024/01/23 01:16:29;;;;;;;0.15;0.15;;;;;;;9.68;56.59;101846.53;5088736;28;20056;-81
2024/01/23 01:18:57;;;;;;;0.10;0.10;;;;;;;9.55;56.96;101864.16;5089965;28;20092;-81
2024/01/23 01:21:23;;;;;;;0.20;0.20;;;;;;;9.60;57.03;101869.44;5089739;28;20027;-81
2024/01/23 01:23:49;;;;;;;0.17;0.17;;;;;;;9.57;57.27;101864.16;5089874;28;20083;-81
2024/01/23 01:26:15;;;;;;;0.68;0.68;;;;;;;9.64;57.62;101871.19;5087643;28;20079;-82
2024/01/23 01:28:42;;;;;;;0.10;0.10;;;;;;;9.61;57.52;101863.28;5094474;28;20024;-81
2024/01/23 01:31:08;;;;;;;0.10;0.10;;;;;;;9.68;57.50;101880.94;5091788;28;20039;-81
2024/01/23 01:33:34;;;;;;;0.10;0.10;;;;;;;9.63;57.79;101880.03;5089966;28;20021;-81
2024/01/23 01:36:00;;;;;;;0.10;0.10;;;;;;;9.58;57.89;101868.56;5090800;28;20024;-80
2024/01/23 01:38:27;;;;;;;1.55;1.00;;;;;;;9.50;58.36;101875.63;5092969;28;20075;-81
2024/01/23 01:40:54;;;;;;;0.10;0.10;;;;;;;9.56;57.97;101875.63;5093223;28;20057;-81
2024/01/23 01:43:25;;;;;;;0.10;0.10;;;;;;;9.61;58.14;101871.22;5085564;28;20028;-81
2024/01/23 01:48:37;;;;;;;0.10;0.10;;;;;;;9.52;58.66;101893.25;5124304;27;1222944;-82
2024/01/23 01:51:03;;;;;;;0.60;0.60;;;;;;;9.56;58.60;101888.84;5136428;27;20031;-81
2024/01/23 01:53:30;;;;;;;0.25;0.25;;;;;;;9.55;58.84;101892.38;5139520;27;20036;-80
2024/01/23 01:55:57;;;;;;;0.10;0.10;;;;;;;9.47;59.33;101904.69;5141893;28;20022;-80
2024/01/23 01:58:24;;;;;;;2.42;0.73;;;;;;;9.39;59.65;101905.59;5123858;28;20093;-79
2024/01/23 02:00:53;;;;;;;0.20;0.20;;;;;;;9.44;59.94;101920.59;5137383;27;20031;-79
2024/01/23 02:03:21;;;;;;;0.20;0.20;;;;;;;9.36;60.09;101921.44;5140039;27;20031;-79
2024/01/23 02:05:48;;;;;;;0.10;0.10;;;;;;;9.25;60.32;101931.09;5131084;27;20050;-80
2024/01/23 02:08:15;;;;;;;0.15;0.15;;;;;;;9.35;60.42;101932.91;5148752;27;20504;-80
2024/01/23 02:10:42;;;;;;;0.17;0.17;;;;;;;9.28;60.65;101933.75;5149629;27;20019;-80
2024/01/23 02:13:08;;;;;;;0.10;0.10;;;;;;;9.32;60.48;101939.94;5148155;27;20012;-81
2024/01/23 02:15:35;;;;;;;0.17;0.17;;;;;;;9.44;60.24;101933.81;5149315;27;20023;-80
2024/01/23 02:18:02;;;;;;;0.17;0.17;;;;;;;9.31;60.45;101944.34;5137759;27;20020;-81
2024/01/23 02:20:28;;;;;;;0.10;0.10;;;;;;;9.39;60.20;101945.28;5132991;28;20039;-80
2024/01/23 02:22:54;;;;;;;0.25;0.25;;;;;;;9.26;60.43;101951.41;5148268;27;20024;-80
2024/01/23 02:25:20;;;;;;;1.05;1.05;;;;;;;9.29;60.32;101948.75;5145080;27;20074;-80
2024/01/23 02:27:47;;;;;;;0.20;0.20;;;;;;;9.38;59.92;101964.66;5127453;28;20020;-80
2024/01/23 02:30:13;;;;;;;0.10;0.10;;;;;;;9.34;60.20;101973.44;5127022;28;20024;-80
2024/01/23 02:32:44;;;;;;;0.10;0.10;;;;;;;9.32;60.35;101987.53;5118503;28;20055;-80
2024/01/23 02:35:15;;;;;;;0.20;0.20;;;;;;;9.40;59.95;101977.88;5140606;28;20041;-79
2024/01/23 02:37:42;;;;;;;0.20;0.20;;;;;;;9.34;60.04;101984.03;5147117;27;20024;-80
2024/01/23 02:40:08;;;;;;;0.10;0.10;;;;;;;9.46;59.80;101984.94;5147111;27;20430;-80
2024/01/23 02:42:34;;;;;;;0.10;0.10;;;;;;;9.36;59.91;101976.97;5145205;27;20074;-80
2024/01/23 07:10:22;;;;;;;0.20;0.20;;;;;;;8.52;61.61;102421.22;5086486;28;20047;-83
2024/01/23 07:12:48;;;;;;;0.10;0.10;;;;;;;8.42;61.78;102431.66;5106792;28;20039;-81
2024/01/23 07:15:14;;;;;;;0.20;0.20;;;;;;;8.43;61.91;102428.13;5103504;28;20028;-81
2024/01/23 07:17:40;;;;;;;0.15;0.15;;;;;;;8.39;61.59;102428.94;5091391;28;20025;-81
2024/01/23 07:20:10;;;;;;;0.63;0.63;;;;;;;8.37;62.09;102441.25;5104801;28;20142;-81
2024/01/23 07:22:36;;;;;;;0.22;0.22;;;;;;;8.35;62.17;102445.63;5091320;28;20034;-81
2024/01/23 07:25:03;;;;;;;0.20;0.20;;;;;;;8.37;61.42;102446.53;5105246;28;20039;-81
2024/01/23 07:27:30;;;;;;;0.35;0.35;;;;;;;8.36;61.28;102447.41;5106468;28;20078;-82
2024/01/23 07:29:56;;;;;;;2.72;1.95;;;;;;;8.27;61.91;102436.69;5099401;28;20028;-82
2024/01/23 07:32:22;;;;;;;3.90;1.95;;;;;;;8.31;61.94;102435.88;5098778;28;20038;-81
2024/01/23 07:34:48;;;;;;;0.10;0.10;;;;;;;8.28;61.97;102441.09;5096908;28;20024;-81
2024/01/23 07:37:15;;;;;;;0.20;0.20;;;;;;;8.17;62.07;102437.41;5112754;28;20016;-81
2024/01/23 07:39:41;;;;;;;0.10;0.10;;;;;;;8.17;62.07;102438.28;5105128;28;20043;-82
2024/01/23 07:42:07;;;;;;;0.20;0.20;;;;;;;8.20;62.31;102437.44;5095469;28;20027;-81
2024/01/23 07:44:38;;;;;;;0.10;0.10;;;;;;;8.09;62.63;102439.94;5097694;28;20036;-82
2024/01/23 07:47:04;;;;;;;0.10;0.10;;;;;;;8.14;61.92;102443.53;5108666;28;20211;-81
2024/01/23 07:49:31;;;;;;;0.20;0.20;;;;;;;8.11;61.89;102461.97;5121264;28;20035;-82
2024/01/23 07:51:57;;;;;;;0.20;0.20;;;;;;;8.09;62.65;102461.94;5117110;28;20028;-82
2024/01/23 07:54:23;;;;;;;0.20;0.20;;;;;;;8.06;62.08;102484.75;5115794;28;20499;-83
2024/01/23 07:56:50;;;;;;;0.10;0.10;;;;;;;7.94;63.16;102488.97;5109044;28;20252;-82
2024/01/23 07:59:17;;;;;;;0.10;0.10;;;;;;;7.93;62.75;102486.31;5103141;28;20053;-82
2024/01/23 08:01:43;;;;;;;0.10;0.10;;;;;;;7.93;63.13;102502.13;5116371;27;20097;-82
2024/01/23 08:04:10;;;;;;;0.20;0.20;;;;;;;7.89;63.02;102505.59;5103665;28;20492;-82
2024/01/23 08:06:37;;;;;;;0.10;0.10;;;;;;;7.88;62.93;102509.09;5104684;28;20048;-82
2024/01/23 08:09:05;;;;;;;0.10;0.10;;;;;;;7.85;63.57;102520.47;5108438;28;20151;-82
2024/01/23 08:11:31;;;;;;;5.05;3.08;;;;;;;7.90;63.26;102533.75;5113858;28;20060;-83
2024/01/23 08:13:58;;;;;;;0.63;0.63;;;;;;;7.88;62.78;102536.34;5120208;28;20087;-82
2024/01/23 08:16:25;;;;;;;0.15;0.15;;;;;;;7.86;62.78;102537.19;5122845;28;20031;-82
2024/01/23 08:18:52;;;;;;;0.10;0.10;;;;;;;7.86;63.25;102547.75;5122558;28;20383;-81
2024/01/23 08:21:18;;;;;;;1.02;1.00;;;;;;;7.80;63.25;102553.81;5122604;28;20124;-82
2024/01/23 08:23:44;;;;;;;0.20;0.20;;;;;;;7.71;63.75;102554.53;5115143;28;20379;-82
2024/01/23 08:26:11;;;;;;;0.20;0.20;;;;;;;7.61;64.95;102563.09;5110301;28;20100;-80
2024/01/23 08:28:39;;;;;;;0.10;0.10;;;;;;;7.60;65.05;102566.59;5090887;28;20042;-81
2024/01/23 08:31:06;;;;;;;0.10;0.10;;;;;;;7.63;64.85;102574.59;5097173;28;20044;-81
2024/01/23 08:33:33;;;;;;;0.68;0.68;;;;;;;7.60;65.73;102579.78;5108373;28;20024;-81
2024/01/23 08:36:01;;;;;;;0.20;0.20;;;;;;;7.53;65.75;102588.47;5124602;28;20024;-81
2024/01/23 08:38:27;;;;;;;0.10;0.10;;;;;;;7.57;65.99;102579.75;5126070;28;20052;-82
2024/01/23 08:40:53;;;;;;;0.10;0.10;;;;;;;7.69;65.68;102579.06;5103185;28;20105;-82
2024/01/23 08:43:19;;;;;;;0.17;0.17;;;;;;;7.66;66.42;102593.09;5105092;28;20039;-81
2024/01/23 08:45:45;;;;;;;0.15;0.15;;;;;;;7.80;65.53;102595.13;5095356;28;20111;-81
2024/01/23 08:48:12;;;;;;;0.10;0.10;;;;;;;7.76;65.33;102588.91;5118768;28;20039;-81
2024/01/23 08:50:38;;;;;;;0.10;0.10;;;;;;;7.76;66.34;102579.25;5121842;28;20115;-81
2024/01/23 08:53:04;;;;;;;0.10;0.10;;;;;;;7.88;65.96;102585.63;5124811;28;20031;-81
2024/01/23 08:55:30;;;;;;;0.10;0.10;;;;;;;7.93;65.06;102573.41;5124901;28;20061;-81
2024/01/23 08:57:57;;;;;;;0.10;0.10;;;;;;;7.96;65.25;102570.81;5120414;28;20020;-80
2024/01/23 09:00:24;;;;;;;0.13;0.13;;;;;;;7.93;65.17;102576.03;5121220;28;20150;-80
2024/01/23 09:02:50;;;;;;;0.20;0.20;;;;;;;8.00;65.34;102583.22;5126200;28;20038;-80
2024/01/23 09:05:16;;;;;;;0.10;0.10;;;;;;;8.09;64.76;102582.50;5124996;28;20036;-80
2024/01/23 09:07:42;;;;;;;0.10;0.10;;;;;;;8.06;65.52;102579.78;5127852;28;20019;-80
2024/01/23 09:10:08;;;;;;;0.10;0.10;;;;;;;8.13;64.83;102578.16;5129181;28;20024;-80
2024/01/23 09:12:34;;;;;;;0.32;0.32;;;;;;;8.12;65.14;102576.38;5103713;28;20458;-81
2024/01/23 09:15:00;;;;;;;0.20;0.20;;;;;;;8.16;65.32;102586.13;5118189;28;20028;-80
2024/01/23 09:17:27;;;;;;;2.38;2.28;;;;;;;8.26;64.69;102585.44;5122334;28;20024;-81
2024/01/23 09:19:53;;;;;;;0.10;0.10;;;;;;;8.30;64.58;102578.44;5121299;28;20183;-81
2024/01/23 09:22:19;;;;;;;0.10;0.10;;;;;;;8.23;64.90;102586.25;5120534;28;20042;-82
2024/01/23 09:24:45;;;;;;;0.25;0.25;;;;;;;8.36;64.93;102574.19;5103863;28;20032;-82
2024/01/23 09:27:11;;;;;;;0.10;0.10;;;;;;;8.33;64.82;102571.47;5097478;28;20055;-80
2024/01/23 09:29:38;;;;;;;0.10;0.10;;;;;;;8.43;64.65;102573.41;5102087;28;20111;-81
2024/01/23 09:32:04;;;;;;;4.13;1.40;;;;;;;8.41;64.70;102569.88;5095934;28;20028;-80
2024/01/23 09:34:31;;;;;;;0.20;0.20;;;;;;;8.51;64.43;102575.31;5097842;28;20036;-82
2024/01/23 09:36:57;;;;;;;0.10;0.10;;;;;;;8.56;64.92;102578.91;5105689;28;20031;-80
2024/01/23 09:39:23;;;;;;;0.10;0.10;;;;;;;8.61;64.76;102579.00;5107383;28;20076;-81
2024/01/23 09:41:52;;;;;;;0.10;0.10;;;;;;;8.66;64.70;102570.28;5109965;28;20043;-81
2024/01/23 09:44:20;;;;;;;0.20;0.20;;;;;;;8.79;64.69;102573.13;5116744;28;20047;-81
2024/01/23 09:46:50;;;;;;;0.13;0.13;;;;;;;8.81;64.56;102587.25;5117175;28;20475;-81
2024/01/23 09:49:17;;;;;;;2.22;1.65;;;;;;;8.91;64.36;102575.97;5106126;28;20048;-81
2024/01/23 09:51:47;;;;;;;0.40;0.40;;;;;;;8.81;64.32;102588.16;5098028;28;20043;-81
2024/01/23 09:54:15;;;;;;;0.10;0.10;;;;;;;8.99;64.30;102578.72;5106975;28;20545;-81
2024/01/23 09:56:41;;;;;;;0.77;0.77;;;;;;;9.02;64.26;102573.44;5093148;28;20043;-81
2024/01/23 09:59:09;;;;;;;0.10;0.10;;;;;;;9.01;64.14;102576.97;5112938;28;20020;-81
2024/01/23 10:01:36;;;;;;;0.20;0.20;;;;;;;9.06;64.40;102580.59;5117423;28;20512;-81
2024/01/23 10:04:05;;;;;;;0.63;0.63;;;;;;;9.16;63.82;102587.78;5118129;28;20105;-82
2024/01/23 10:06:32;;;;;;;0.45;0.45;;;;;;;9.21;63.90;102582.56;5117149;28;20030;-79
2024/01/23 10:08:58;;;;;;;0.20;0.20;;;;;;;9.30;63.94;102589.72;5112664;28;20050;-80
2024/01/23 10:11:28;;;;;;;0.10;0.10;;;;;;;9.30;63.84;102595.00;5102808;28;20032;-80
2024/01/23 10:13:58;;;;;;;0.10;0.10;;;;;;;9.32;63.70;102590.59;5110976;28;20023;-80
2024/01/23 10:16:26;;;;;;;0.30;0.30;;;;;;;9.48;63.59;102579.38;5110122;28;20029;-81
2024/01/23 10:18:53;;;;;;;0.15;0.15;;;;;;;9.45;63.34;102578.44;5130969;28;20004;-81
2024/01/23 10:21:21;;;;;;;0.10;0.10;;;;;;;9.63;63.35;102585.72;5120419;28;20027;-81
2024/01/23 10:23:49;;;;;;;0.20;0.20;;;;;;;9.75;63.05;102584.97;5114935;28;20057;-80
2024/01/23 10:26:16;;;;;;;0.20;0.20;;;;;;;9.71;62.89;102579.63;5109437;28;20544;-81
2024/01/23 10:28:44;;;;;;;0.10;0.10;;;;;;;9.78;62.64;102579.72;5123339;28;20032;-81
2024/01/23 10:31:11;;;;;;;1.10;1.10;;;;;;;9.79;62.64;102574.41;5103232;28;20040;-82
2024/01/23 10:33:38;;;;;;;0.25;0.25;;;;;;;9.84;62.42;102577.13;5099577;28;20450;-82
2024/01/23 10:36:07;;;;;;;0.38;0.38;;;;;;;9.93;62.72;102577.25;5106950;28;20532;-82
2024/01/23 10:38:35;;;;;;;0.30;0.30;;;;;;;9.86;62.56;102572.75;5103793;28;20028;-81
2024/01/23 10:41:04;;;;;;;0.17;0.17;;;;;;;9.82;62.73;102585.06;5108607;28;20080;-81
2024/01/23 10:43:31;;;;;;;2.63;1.10;;;;;;;9.89;62.56;102575.41;5119454;28;20043;-81
2024/01/23 10:45:59;;;;;;;1.15;1.15;;;;;;;9.95;62.61;102579.91;5129238;28;20034;-81
2024/01/23 10:48:26;;;;;;;0.10;0.10;;;;;;;9.97;62.25;102575.50;5128680;28;20081;-82
2024/01/23 10:50:56;;;;;;;0.10;0.10;;;;;;;9.96;61.83;102569.31;5127987;28;20148;-81
2024/01/23 10:53:33;;;;;;;0.10;0.10;;;;;;;10.08;62.21;102565.00;5115236;28;20032;-82
2024/01/23 10:56:00;;;;;;;1.52;1.42;;;;;;;10.02;62.23;102558.78;5118837;28;20078;-81
2024/01/23 10:58:32;;;;;;;2.25;1.85;;;;;;;10.10;62.13;102544.75;5112279;28;20066;-82
2024/01/23 11:01:00;;;;;;;0.10;0.10;;;;;;;10.11;62.48;102543.88;5112017;28;20032;-82
2024/01/23 11:03:27;;;;;;;0.10;0.10;;;;;;;10.16;61.69;102543.03;5127411;28;20032;-82
2024/01/23 11:05:59;;;;;;;0.10;0.10;;;;;;;10.10;61.94;102527.06;5128824;28;20051;-81
2024/01/23 11:08:27;;;;;;;;;;;;;;;10.19;61.61;102520.97;5120608;28;20075;-82
2024/01/23 11:11:05;;;;;;;0.10;0.10;;;;;;;10.03;61.49;102510.25;5114555;28;19915;-82
2024/01/23 11:13:41;;;;;;;0.10;0.10;;;;;;;10.00;62.04;102515.50;5100447;28;20054;-81
2024/01/23 11:16:08;;;;;;;0.10;0.10;;;;;;;9.92;61.86;102517.22;5124350;28;20023;-81
2024/01/23 11:18:35;;;;;;;0.10;0.10;;;;;;;10.07;61.63;102505.88;5101038;28;20048;-82
2024/01/23 11:23:43;;;;;;;4.47;1.55;;;;;;;10.23;61.47;102504.25;5115829;27;20484;-81
2024/01/23 11:28:58;;;;;;;0.20;0.20;;;;;;;10.30;61.54;102470.72;5108181;27;20395;-81
2024/01/23 11:31:26;;;;;;;0.10;0.10;;;;;;;10.44;61.38;102473.50;5124293;28;20032;-81
2024/01/23 11:34:13;;;;;;;0.43;0.43;;;;;;;10.48;61.63;102480.59;5111001;28;20028;-81
2024/01/23 11:36:39;;;;;;;0.20;0.20;;;;;;;10.40;60.99;102493.78;5100996;28;20031;-81
2024/01/23 11:39:15;;;;;;;0.63;0.63;;;;;;;10.52;60.92;102479.75;5112492;28;20046;-81
2024/01/23 11:41:48;;;;;;;0.40;0.40;;;;;;;10.44;60.94;102473.50;5116987;28;20027;-81
2024/01/23 11:44:16;;;;;;;0.32;0.32;;;;;;;10.45;61.09;102469.97;5117432;28;20054;-81
2024/01/23 11:46:43;;;;;;;0.10;0.10;;;;;;;10.51;61.03;102470.03;5116903;28;20031;-81
2024/01/23 11:49:12;;;;;;;0.10;0.10;;;;;;;10.40;60.53;102471.72;5119985;28;20035;-81
2024/01/23 11:51:39;;;;;;;0.10;0.10;;;;;;;10.46;60.62;102455.88;5118369;28;20024;-81
2024/01/23 11:54:09;;;;;;;0.20;0.20;;;;;;;10.40;60.70;102462.00;5119453;28;20043;-81
2024/01/23 11:56:37;;;;;;;0.10;0.10;;;;;;;10.43;60.32;102458.47;5120991;28;20408;-81
2024/01/23 11:59:03;;;;;;;1.95;1.85;;;;;;;10.28;60.64;102452.19;5110517;28;20065;-81
2024/01/23 12:01:32;;;;;;;0.50;0.50;;;;;;;10.43;60.33;102447.88;5110986;28;20024;-82
2024/01/23 12:03:58;;;;;;;0.65;0.65;;;;;;;10.50;60.80;102442.66;5117664;28;20020;-81
2024/01/23 12:06:25;;;;;;;1.67;1.38;;;;;;;10.56;60.39;102440.91;5118265;28;20035;-81
2024/01/23 12:08:51;;;;;;;0.10;0.10;;;;;;;10.68;60.36;102430.38;5118508;28;20038;-82
2024/01/23 12:11:18;;;;;;;0.17;0.17;;;;;;;10.66;60.43;102417.09;5038962;22;20045;-88
2024/01/23 12:13:46;;;;;;;0.10;0.10;;;;;;;10.75;60.81;102412.72;5044036;28;20034;-89
2024/01/23 12:16:15;;;;;;;0.10;0.10;;;;;;;10.78;60.62;102412.72;5035353;28;20113;-87
2024/01/23 12:18:41;;;;;;;0.10;0.10;;;;;;;10.93;60.30;102404.84;5028565;28;20417;-89
2024/01/23 12:21:09;;;;;;;0.30;0.30;;;;;;;10.87;60.32;102404.81;5036374;28;20033;-88
2024/01/23 12:23:35;;;;;;;0.10;0.10;;;;;;;10.94;60.86;102401.31;5025783;28;20033;-87
2024/01/23 12:26:03;;;;;;;2.05;1.95;;;;;;;10.79;60.92;102390.63;5027421;28;20389;-87
2024/01/23 12:28:29;;;;;;;0.30;0.30;;;;;;;10.74;60.82;102397.69;5028944;28;20156;-88
2024/01/23 12:30:56;;;;;;;1.13;0.60;;;;;;;10.85;61.10;102393.31;5034704;28;20079;-87
2024/01/23 12:33:22;;;;;;;0.10;0.10;;;;;;;10.87;60.83;102382.72;5036085;28;20026;-85
2024/01/23 12:35:49;;;;;;;0.82;0.82;;;;;;;10.79;61.06;102385.34;5029634;28;20025;-85
2024/01/23 12:38:16;;;;;;;0.10;0.10;;;;;;;10.76;61.80;102385.34;5031512;28;20030;-85
2024/01/23 12:40:42;;;;;;;1.25;0.57;;;;;;;10.85;61.58;102395.97;5021022;28;20034;-85
2024/01/23 12:43:09;;;;;;;0.68;0.68;;;;;;;10.71;61.60;102387.97;5011320;28;20108;-87
2024/01/23 12:45:35;;;;;;;0.10;0.10;;;;;;;10.77;61.62;102384.47;5018698;28;20029;-87
2024/01/23 12:48:10;;;;;;;1.67;1.65;;;;;;;10.86;61.61;102370.34;5021206;28;20026;-87
2024/01/23 12:50:37;;;;;;;0.10;0.10;;;;;;;10.82;61.87;102375.63;5018772;28;20061;-88
2024/01/23 12:53:07;;;;;;;0.20;0.20;;;;;;;10.81;62.16;102362.38;5020786;28;20060;-88
2024/01/23 12:55:33;;;;;;;0.10;0.10;;;;;;;10.80;61.83;102355.28;5016179;28;20053;-87
2024/01/23 12:58:00;;;;;;;0.40;0.40;;;;;;;10.78;62.47;102344.69;5017101;28;20124;-87
2024/01/23 13:00:26;;;;;;;0.20;0.20;;;;;;;10.84;62.62;102338.50;5024440;28;20055;-87
2024/01/23 13:02:52;;;;;;;0.75;0.75;;;;;;;10.83;62.25;102342.06;5024648;28;20022;-89
2024/01/23 13:05:20;;;;;;;1.17;1.15;;;;;;;10.81;62.92;102342.03;5012040;28;20026;-87
2024/01/23 13:07:47;;;;;;;1.08;0.45;;;;;;;10.70;63.24;102342.91;5016778;28;20127;-87
2024/01/23 13:10:14;;;;;;;0.20;0.20;;;;;;;10.80;63.12;102340.28;5008208;28;20217;-88
2024/01/23 13:12:41;;;;;;;0.10;0.10;;;;;;;10.90;62.86;102327.03;5012098;28;20038;-87
2024/01/23 13:15:08;;;;;;;0.30;0.30;;;;;;;10.78;63.03;102315.53;5030514;28;20029;-88
2024/01/23 13:17:34;;;;;;;0.20;0.20;;;;;;;10.71;63.67;102315.50;5022736;28;20018;-88
2024/01/23 13:20:04;;;;;;;0.10;0.10;;;;;;;10.66;64.41;102304.88;5018088;28;20030;-88
2024/01/23 13:22:30;;;;;;;0.10;0.10;;;;;;;10.88;63.53;102303.19;5005392;28;20029;-88
2024/01/23 13:24:56;;;;;;;0.10;0.10;;;;;;;10.81;63.83;102293.44;5007803;28;20030;-88
2024/01/23 13:27:23;;;;;;;0.10;0.10;;;;;;;10.81;63.71;102309.34;5016476;28;20026;-87
2024/01/23 13:29:49;;;;;;;8.52;1.20;;;;;;;10.85;63.97;102297.84;5021148;28;20041;-88
2024/01/23 13:32:16;;;;;;;0.30;0.30;;;;;;;10.88;63.86;102305.84;5009468;28;20051;-87
2024/01/23 13:34:42;;;;;;;0.45;0.45;;;;;;;10.84;64.07;102289.03;5016439;28;20037;-87
2024/01/23 13:37:08;;;;;;;13.15;0.90;;;;;;;10.75;64.76;102290.78;5013728;28;20153;-87
2024/01/23 13:39:35;;;;;;;0.10;0.10;;;;;;;10.75;64.95;102278.38;5000898;28;20030;-86
2024/01/23 13:42:01;;;;;;;0.28;0.28;;;;;;;10.77;65.02;102281.06;5016800;28;20085;-86
2024/01/23 13:44:27;;;;;;;0.30;0.30;;;;;;;10.70;65.37;102274.84;5027756;28;20068;-87
2024/01/23 13:46:53;;;;;;;3.88;3.50;;;;;;;10.81;65.61;102264.28;5019606;28;20546;-87
2024/01/23 13:49:20;;;;;;;0.43;0.43;;;;;;;10.81;66.18;102265.16;5021713;28;20029;-87
2024/01/23 13:51:46;;;;;;;0.57;0.57;;;;;;;10.91;65.63;102260.75;5025393;28;20049;-87
2024/01/23 13:54:12;;;;;;;1.48;1.38;;;;;;;10.88;66.15;102267.81;5026255;28;20452;-87
2024/01/23 13:56:38;;;;;;;1.85;0.65;;;;;;;10.79;66.87;102255.41;5016005;28;20054;-87
2024/01/23 13:59:04;;;;;;;0.10;0.10;;;;;;;10.79;66.92;102250.13;5016825;28;20081;-86
2024/01/23 14:01:35;;;;;;;0.20;0.20;;;;;;;10.73;67.90;102252.75;5021092;28;20108;-87
2024/01/23 14:04:02;;;;;;;0.10;0.10;;;;;;;10.73;67.62;102242.16;5019246;28;20030;-87
2024/01/23 14:06:29;;;;;;;0.10;0.10;;;;;;;10.64;67.97;102241.28;5023998;28;20037;-86
2024/01/23 14:08:56;;;;;;;0.10;0.10;;;;;;;10.60;68.70;102239.47;5014600;28;20030;-86
2024/01/23 14:11:23;;;;;;;9.07;5.00;;;;;;;10.61;68.66;102221.81;5014263;28;20033;-87
2024/01/23 14:13:49;;;;;;;0.32;0.32;;;;;;;10.61;69.36;102212.09;5004197;28;20513;-90
2024/01/23 14:16:16;;;;;;;0.40;0.40;;;;;;;10.68;68.93;102216.53;5012580;28;20034;-89
2024/01/23 14:18:42;;;;;;;0.17;0.17;;;;;;;10.58;68.87;102217.41;4983822;28;20027;-88
2024/01/23 14:21:11;;;;;;;14.60;1.45;;;;;;;10.59;68.93;102208.56;4985585;28;20101;-90
2024/01/23 14:23:37;;;;;;;0.10;0.10;;;;;;;10.59;69.22;102203.28;4983589;28;20029;-89
2024/01/23 14:26:05;;;;;;;0.22;0.22;;;;;;;10.58;69.30;102190.00;4998547;28;20034;-89
2024/01/23 14:28:31;;;;;;;6.70;0.93;;;;;;;10.47;69.93;102182.06;5004031;28;20041;-88
2024/01/23 14:30:57;;;;;;;0.20;0.20;;;;;;;10.45;70.07;102178.50;5004852;28;20037;-89
2024/01/23 14:33:25;;;;;;;0.10;0.10;;;;;;;10.40;70.27;102170.53;5013249;28;20030;-88
2024/01/23 14:35:51;;;;;;;0.10;0.10;;;;;;;10.47;70.16;102161.72;5008647;28;20466;-88
2024/01/23 14:38:18;;;;;;;0.10;0.10;;;;;;;10.46;70.37;102156.44;5009214;28;20083;-88
2024/01/23 14:40:44;;;;;;;0.20;0.20;;;;;;;10.34;70.76;102150.19;5023627;28;20042;-90
2024/01/23 14:43:10;;;;;;;0.20;0.20;;;;;;;10.44;70.77;102142.28;5025036;28;20528;-89
2024/01/23 14:45:38;;;;;;;0.43;0.43;;;;;;;10.38;70.67;102143.19;5013193;28;20037;-89
2024/01/23 14:48:05;;;;;;;0.10;0.10;;;;;;;10.29;71.32;102149.31;5004594;28;20053;-89
2024/01/23 14:50:31;;;;;;;0.10;0.10;;;;;;;10.44;70.67;102131.69;5011590;28;20026;-87
2024/01/23 14:52:57;;;;;;;0.28;0.28;;;;;;;10.38;71.26;102134.31;5009799;28;20036;-90
2024/01/23 14:55:23;;;;;;;1.17;0.63;;;;;;;10.32;71.84;102124.59;5009905;28;20481;-89
2024/01/23 14:57:51;;;;;;;5.57;0.75;;;;;;;10.28;72.12;102107.78;4998031;28;20034;-89
2024/01/23 15:00:17;;;;;;;0.20;0.20;;;;;;;10.23;72.29;102093.66;5022571;28;20025;-89
2024/01/23 15:02:46;;;;;;;0.10;0.10;;;;;;;10.22;72.77;102086.59;5008696;28;20485;-89
2024/01/23 15:05:12;;;;;;;0.22;0.22;;;;;;;10.23;72.70;102083.06;5002753;28;20057;-89
2024/01/23 15:07:40;;;;;;;1.00;1.00;;;;;;;10.16;73.26;102078.66;5007296;28;20026;-89
2024/01/23 15:10:06;;;;;;;0.10;0.10;;;;;;;10.18;72.95;102079.50;5000590;28;20027;-89
2024/01/23 15:12:32;;;;;;;1.58;1.40;;;;;;;10.18;72.77;102071.56;5004191;28;20065;-90
2024/01/23 15:14:59;;;;;;;0.13;0.13;;;;;;;10.18;73.02;102075.13;5013593;28;20025;-89
2024/01/23 15:17:25;;;;;;;0.10;0.10;;;;;;;10.16;73.14;102065.41;5003622;28;20025;-90
2024/01/23 15:19:53;;;;;;;0.20;0.20;;;;;;;10.13;73.17;102054.78;5002187;28;20085;-91
2024/01/23 15:22:23;;;;;;;0.10;0.10;;;;;;;10.14;73.19;102053.91;5004801;28;20067;-90
2024/01/23 15:25:04;;;;;;;;;;;;;;;;;;;;;
2024/01/23 15:27:53;;;;;;;;;;;;;;;;;;;;;
2024/01/23 15:30:30;;;;;;;0.10;0.10;;;;;;;10.09;73.66;102032.72;5005863;28;20048;-90
2024/01/23 15:33:33;;;;;;;0.10;0.10;;;;;;;10.13;73.92;102026.56;5004274;28;20036;-91
2024/01/23 15:35:52;;;;;;;0.10;0.10;;;;;;;10.07;73.98;102015.06;5009812;28;20018;-91
2024/01/23 15:38:19;;;;;;;0.10;0.10;;;;;;;9.96;74.05;102009.78;5028850;28;20022;-91
2024/01/23 15:41:09;;;;;;;0.10;0.10;;;;;;;9.98;74.52;101992.09;5019127;28;20033;-90
2024/01/23 15:43:56;;;;;;;;;;;;;;;;;;;;;
2024/01/23 15:46:38;;;;;;;0.10;0.10;;;;;;;9.94;74.67;101977.09;4928336;28;20039;-90
2024/01/23 15:49:05;;;;;;;0.15;0.15;;;;;;;9.97;74.51;101970.06;5008126;28;20030;-91
2024/01/23 15:51:31;;;;;;;0.38;0.38;;;;;;;9.94;74.45;101964.75;5013279;28;20050;-90
2024/01/23 15:53:58;;;;;;;0.15;0.15;;;;;;;9.92;74.42;101948.00;5003755;28;20062;-90
2024/01/23 15:56:24;;;;;;;0.10;0.10;;;;;;;9.91;74.37;101950.66;4995941;28;20045;-91
2024/01/23 15:58:55;;;;;;;0.10;0.10;;;;;;;9.83;75.11;101932.97;5003001;28;20034;-90
2024/01/23 16:01:24;;;;;;;0.10;0.10;;;;;;;9.80;75.00;101940.03;4994521;28;20037;-90
2024/01/23 16:03:52;;;;;;;0.10;0.10;;;;;;;9.92;75.02;101926.81;5002470;28;20077;-90
2024/01/23 16:06:36;;;;;;;0.10;0.10;;;;;;;10.02;74.56;101925.91;5005732;28;20036;-90
2024/01/23 16:09:05;;;;;;;0.10;0.10;;;;;;;9.77;75.19;101925.03;4999191;28;20026;-90